sensor_id;sensor_type;location;lat;lon;timestamp;pressure;altitude;pressure_sealevel;temperature;humidity
53908;BME280;40469;47.998;7.794;2022-12-18T00:02:12;100030.09;;;-6.61;100.00
53908;BME280;40469;47.998;7.794;2022-12-18T00:04:37;100016.75;;;-6.47;100.00
53908;BME280;40469;47.998;7.794;2022-12-18T00:07:03;100017.00;;;-6.44;100.00
53908;BME280;40469;47.998;7.794;2022-12-18T00:09:28;100024.69;;;-6.42;100.00
53908;BME280;40469;47.998;7.794;2022-12-18T00:11:54;100035.31;;;-6.48;100.00
53908;BME280;40469;47.998;7.794;2022-12-18T00:14:19;100038.28;;;-6.54;100.00
53908;BME280;40469;47.998;7.794;2022-12-18T00:16:45;100047.44;;;-6.56;100.00
53908;BME280;40469;47.998;7.794;2022-12-18T00:19:13;100056.59;;;-6.58;100.00
53908;BME280;40469;47.998;7.794;2022-12-18T00:21:42;100061.25;;;-6.52;100.00
53908;BME280;40469;47.998;7.794;2022-12-18T00:24:09;100063.09;;;-6.61;100.00
53908;BME280;40469;47.998;7.794;2022-12-18T00:26:35;100055.50;;;-6.61;100.00
53908;BME280;40469;47.998;7.794;2022-12-18T00:29:10;100056.00;;;-6.65;100.00
53908;BME280;40469;47.998;7.794;2022-12-18T00:31:37;100063.09;;;-6.61;100.00
53908;BME280;40469;47.998;7.794;2022-12-18T00:34:03;100072.59;;;-6.59;100.00
53908;BME280;40469;47.998;7.794;2022-12-18T00:36:31;100064.84;;;-6.72;100.00
53908;BME280;40469;47.998;7.794;2022-12-18T00:38:58;100068.25;;;-6.72;100.00
53908;BME280;40469;47.998;7.794;2022-12-18T00:41:24;100057.84;;;-6.75;100.00
53908;BME280;40469;47.998;7.794;2022-12-18T00:44:11;100055.31;;;-6.75;100.00
53908;BME280;40469;47.998;7.794;2022-12-18T00:46:37;100064.22;;;-6.80;100.00
53908;BME280;40469;47.998;7.794;2022-12-18T00:49:02;100060.75;;;-6.70;100.00
53908;BME280;40469;47.998;7.794;2022-12-18T00:51:28;100060.75;;;-6.70;100.00
53908;BME280;40469;47.998;7.794;2022-12-18T00:53:53;100063.28;;;-6.70;100.00
53908;BME280;40469;47.998;7.794;2022-12-18T00:56:22;100063.72;;;-6.76;100.00
53908;BME280;40469;47.998;7.794;2022-12-18T00:58:47;100071.22;;;-6.77;100.00
53908;BME280;40469;47.998;7.794;2022-12-18T01:01:13;100071.44;;;-6.74;100.00
53908;BME280;40469;47.998;7.794;2022-12-18T01:03:38;100071.41;;;-6.86;100.00
53908;BME280;40469;47.998;7.794;2022-12-18T01:06:08;100061.00;;;-6.89;100.00
53908;BME280;40469;47.998;7.794;2022-12-18T01:08:37;100059.22;;;-6.90;100.00
53908;BME280;40469;47.998;7.794;2022-12-18T01:11:15;100056.09;;;-6.98;100.00
53908;BME280;40469;47.998;7.794;2022-12-18T01:13:41;100061.94;;;-6.99;100.00
53908;BME280;40469;47.998;7.794;2022-12-18T01:16:06;100071.03;;;-6.91;100.00
53908;BME280;40469;47.998;7.794;2022-12-18T01:18:32;100072.94;;;-6.88;100.00
53908;BME280;40469;47.998;7.794;2022-12-18T01:20:58;100075.00;;;-6.94;100.00
53908;BME280;40469;47.998;7.794;2022-12-18T01:23:26;100079.78;;;-6.87;100.00
53908;BME280;40469;47.998;7.794;2022-12-18T01:25:52;100088.38;;;-6.85;100.00
53908;BME280;40469;47.998;7.794;2022-12-18T01:28:17;100092.28;;;-7.00;100.00
53908;BME280;40469;47.998;7.794;2022-12-18T01:30:42;100093.28;;;-6.98;100.00
53908;BME280;40469;47.998;7.794;2022-12-18T01:33:08;100094.28;;;-6.96;100.00
53908;BME280;40469;47.998;7.794;2022-12-18T01:35:41;100087.22;;;-7.00;100.00
53908;BME280;40469;47.998;7.794;2022-12-18T01:38:07;100082.72;;;-6.93;100.00
53908;BME280;40469;47.998;7.794;2022-12-18T01:40:32;100083.66;;;-7.02;100.00
53908;BME280;40469;47.998;7.794;2022-12-18T01:42:57;100083.66;;;-7.02;100.00
53908;BME280;40469;47.998;7.794;2022-12-18T01:45:30;100085.06;;;-7.06;100.00
53908;BME280;40469;47.998;7.794;2022-12-18T01:48:00;100083.31;;;-7.07;100.00
53908;BME280;40469;47.998;7.794;2022-12-18T01:55:43;100086.31;;;-7.23;100.00
53908;BME280;40469;47.998;7.794;2022-12-18T01:58:10;100094.13;;;-7.20;100.00
53908;BME280;40469;47.998;7.794;2022-12-18T02:00:35;100098.84;;;-7.14;100.00
53908;BME280;40469;47.998;7.794;2022-12-18T02:03:00;100107.31;;;-7.14;100.00
53908;BME280;40469;47.998;7.794;2022-12-18T02:05:50;100098.53;;;-7.07;100.00
53908;BME280;40469;47.998;7.794;2022-12-18T02:08:22;100095.09;;;-7.08;100.00
53908;BME280;40469;47.998;7.794;2022-12-18T02:11:05;100092.69;;;-7.06;100.00
53908;BME280;40469;47.998;7.794;2022-12-18T02:13:46;100102.31;;;-7.02;100.00
53908;BME280;40469;47.998;7.794;2022-12-18T02:16:24;100108.44;;;-7.10;100.00
53908;BME280;40469;47.998;7.794;2022-12-18T02:18:53;100100.72;;;-7.12;100.00
53908;BME280;40469;47.998;7.794;2022-12-18T02:28:45;100121.13;;;-7.10;100.00
53908;BME280;40469;47.998;7.794;2022-12-18T02:31:21;100118.72;;;-7.09;100.00
53908;BME280;40469;47.998;7.794;2022-12-18T02:33:49;100111.66;;;-7.13;100.00
53908;BME280;40469;47.998;7.794;2022-12-18T02:36:17;100116.19;;;-7.09;100.00
53908;BME280;40469;47.998;7.794;2022-12-18T02:38:44;100105.25;;;-7.08;100.00
53908;BME280;40469;47.998;7.794;2022-12-18T02:41:11;100100.00;;;-7.21;100.00
53908;BME280;40469;47.998;7.794;2022-12-18T02:43:38;100099.13;;;-7.21;100.00
53908;BME280;40469;47.998;7.794;2022-12-18T02:46:32;100100.75;;;-7.22;100.00
53908;BME280;40469;47.998;7.794;2022-12-18T02:49:09;100104.94;;;-7.22;100.00
53908;BME280;40469;47.998;7.794;2022-12-18T02:51:57;100107.59;;;-7.21;100.00
53908;BME280;40469;47.998;7.794;2022-12-18T02:54:36;100107.59;;;-7.21;100.00
53908;BME280;40469;47.998;7.794;2022-12-18T02:57:16;100103.69;;;-7.28;100.00
53908;BME280;40469;47.998;7.794;2022-12-18T02:59:56;100096.88;;;-7.29;100.00
53908;BME280;40469;47.998;7.794;2022-12-18T03:02:46;100101.69;;;-7.32;100.00
53908;BME280;40469;47.998;7.794;2022-12-18T03:05:20;100096.63;;;-7.32;100.00
53908;BME280;40469;47.998;7.794;2022-12-18T03:07:49;100089.00;;;-7.32;100.00
53908;BME280;40469;47.998;7.794;2022-12-18T03:10:19;100094.31;;;-7.29;100.00
53908;BME280;40469;47.998;7.794;2022-12-18T03:12:51;100096.13;;;-7.38;100.00
53908;BME280;40469;47.998;7.794;2022-12-18T03:15:28;100100.19;;;-7.40;100.00
53908;BME280;40469;47.998;7.794;2022-12-18T03:17:59;100101.22;;;-7.48;100.00
53908;BME280;40469;47.998;7.794;2022-12-18T03:20:28;100100.56;;;-7.35;100.00
53908;BME280;40469;47.998;7.794;2022-12-18T03:23:00;100103.72;;;-7.38;100.00
53908;BME280;40469;47.998;7.794;2022-12-18T03:25:28;100101.72;;;-7.42;100.00
53908;BME280;40469;47.998;7.794;2022-12-18T03:27:56;100099.66;;;-7.36;100.00
53908;BME280;40469;47.998;7.794;2022-12-18T03:30:25;100104.50;;;-7.39;100.00
53908;BME280;40469;47.998;7.794;2022-12-18T03:33:07;100100.19;;;-7.40;100.00
53908;BME280;40469;47.998;7.794;2022-12-18T03:35:39;100106.25;;;-7.38;100.00
53908;BME280;40469;47.998;7.794;2022-12-18T03:38:05;100102.72;;;-7.40;100.00
53908;BME280;40469;47.998;7.794;2022-12-18T03:50:08;100110.22;;;-7.52;100.00
53908;BME280;40469;47.998;7.794;2022-12-18T03:52:54;100113.28;;;-7.56;100.00
53908;BME280;40469;47.998;7.794;2022-12-18T03:55:24;100102.63;;;-7.52;100.00
53908;BME280;40469;47.998;7.794;2022-12-18T03:57:52;100103.75;;;-7.48;100.00
53908;BME280;40469;47.998;7.794;2022-12-18T04:00:19;100116.22;;;-7.51;100.00
53908;BME280;40469;47.998;7.794;2022-12-18T04:02:51;100105.06;;;-7.53;100.00
53908;BME280;40469;47.998;7.794;2022-12-18T04:05:19;100106.19;;;-7.50;100.00
53908;BME280;40469;47.998;7.794;2022-12-18T04:07:47;100107.94;;;-7.49;100.00
53908;BME280;40469;47.998;7.794;2022-12-18T04:10:13;100101.00;;;-7.51;100.00
53908;BME280;40469;47.998;7.794;2022-12-18T04:12:40;100101.50;;;-7.55;100.00
53908;BME280;40469;47.998;7.794;2022-12-18T04:15:07;100103.28;;;-7.54;100.00
53908;BME280;40469;47.998;7.794;2022-12-18T04:17:32;100098.19;;;-7.54;100.00
53908;BME280;40469;47.998;7.794;2022-12-18T04:19:58;100100.63;;;-7.56;100.00
53908;BME280;40469;47.998;7.794;2022-12-18T04:22:23;100112.53;;;-7.55;100.00
53908;BME280;40469;47.998;7.794;2022-12-18T04:24:48;100105.16;;;-7.52;100.00
53908;BME280;40469;47.998;7.794;2022-12-18T04:27:14;100093.13;;;-7.54;100.00
53908;BME280;40469;47.998;7.794;2022-12-18T04:29:39;100092.66;;;-7.60;100.00
53908;BME280;40469;47.998;7.794;2022-12-18T04:32:05;100090.13;;;-7.60;100.00
53908;BME280;40469;47.998;7.794;2022-12-18T04:34:30;100089.47;;;-7.58;100.00
53908;BME280;40469;47.998;7.794;2022-12-18T04:36:55;100091.34;;;-7.55;100.00
53908;BME280;40469;47.998;7.794;2022-12-18T04:39:21;100088.06;;;-7.54;100.00
53908;BME280;40469;47.998;7.794;2022-12-18T04:41:46;100102.81;;;-7.60;100.00
53908;BME280;40469;47.998;7.794;2022-12-18T04:44:11;100097.09;;;-7.68;100.00
53908;BME280;40469;47.998;7.794;2022-12-18T04:46:37;100082.75;;;-7.68;100.00
53908;BME280;40469;47.998;7.794;2022-12-18T04:49:02;100095.94;;;-7.62;100.00
53908;BME280;40469;47.998;7.794;2022-12-18T04:51:27;100087.22;;;-7.65;100.00
53908;BME280;40469;47.998;7.794;2022-12-18T04:53:53;100093.81;;;-7.67;100.00
53908;BME280;40469;47.998;7.794;2022-12-18T04:56:19;100095.56;;;-7.66;100.00
53908;BME280;40469;47.998;7.794;2022-12-18T04:58:45;100101.69;;;-7.74;100.00
53908;BME280;40469;47.998;7.794;2022-12-18T05:01:12;100101.81;;;-7.73;100.00
53908;BME280;40469;47.998;7.794;2022-12-18T05:03:38;100099.91;;;-7.75;100.00
53908;BME280;40469;47.998;7.794;2022-12-18T05:06:05;100098.13;;;-7.76;100.00
53908;BME280;40469;47.998;7.794;2022-12-18T05:08:31;100098.91;;;-7.77;100.00
53908;BME280;40469;47.998;7.794;2022-12-18T05:11:04;100097.13;;;-7.78;100.00
53908;BME280;40469;47.998;7.794;2022-12-18T05:13:31;100094.97;;;-7.84;100.00
53908;BME280;40469;47.998;7.794;2022-12-18T05:15:57;100099.91;;;-7.86;100.00
53908;BME280;40469;47.998;7.794;2022-12-18T05:18:23;100094.84;;;-7.86;100.00
53908;BME280;40469;47.998;7.794;2022-12-18T05:20:52;100098.53;;;-7.92;100.00
53908;BME280;40469;47.998;7.794;2022-12-18T05:23:19;100096.50;;;-8.07;100.00
53908;BME280;40469;47.998;7.794;2022-12-18T05:25:55;100094.25;;;-8.04;100.00
53908;BME280;40469;47.998;7.794;2022-12-18T05:28:21;100099.97;;;-8.06;100.00
53908;BME280;40469;47.998;7.794;2022-12-18T05:30:49;100098.19;;;-8.07;100.00
53908;BME280;40469;47.998;7.794;2022-12-18T05:33:15;100078.28;;;-8.13;100.00
53908;BME280;40469;47.998;7.794;2022-12-18T05:35:40;100091.22;;;-8.10;100.00
53908;BME280;40469;47.998;7.794;2022-12-18T05:38:06;100087.03;;;-8.09;100.00
53908;BME280;40469;47.998;7.794;2022-12-18T05:40:31;100088.91;;;-8.07;100.00
53908;BME280;40469;47.998;7.794;2022-12-18T05:42:56;100094.38;;;-8.12;100.00
53908;BME280;40469;47.998;7.794;2022-12-18T05:45:21;100088.56;;;-8.11;100.00
53908;BME280;40469;47.998;7.794;2022-12-18T05:47:47;100096.78;;;-8.14;100.00
53908;BME280;40469;47.998;7.794;2022-12-18T05:50:12;100087.66;;;-8.12;100.00
53908;BME280;40469;47.998;7.794;2022-12-18T05:52:37;100083.75;;;-8.18;100.00
53908;BME280;40469;47.998;7.794;2022-12-18T05:55:03;100092.72;;;-8.12;100.00
53908;BME280;40469;47.998;7.794;2022-12-18T05:57:29;100099.69;;;-8.20;100.00
53908;BME280;40469;47.998;7.794;2022-12-18T05:59:54;100108.56;;;-8.25;100.00
53908;BME280;40469;47.998;7.794;2022-12-18T06:02:20;100100.59;;;-8.29;100.00
53908;BME280;40469;47.998;7.794;2022-12-18T06:04:46;100110.09;;;-8.27;100.00
53908;BME280;40469;47.998;7.794;2022-12-18T06:07:11;100107.44;;;-8.28;100.00
53908;BME280;40469;47.998;7.794;2022-12-18T06:09:36;100119.69;;;-8.33;100.00
53908;BME280;40469;47.998;7.794;2022-12-18T06:12:02;100116.66;;;-8.39;100.00
53908;BME280;40469;47.998;7.794;2022-12-18T06:14:27;100117.41;;;-8.40;100.00
53908;BME280;40469;47.998;7.794;2022-12-18T06:16:53;100133.41;;;-8.31;100.00
53908;BME280;40469;47.998;7.794;2022-12-18T06:19:18;100138.47;;;-8.31;100.00
53908;BME280;40469;47.998;7.794;2022-12-18T06:21:43;100137.06;;;-8.17;100.00
53908;BME280;40469;47.998;7.794;2022-12-18T06:24:09;100131.75;;;-8.20;100.00
53908;BME280;40469;47.998;7.794;2022-12-18T06:26:37;100140.47;;;-8.37;100.00
53908;BME280;40469;47.998;7.794;2022-12-18T06:29:03;100148.72;;;-8.40;100.00
53908;BME280;40469;47.998;7.794;2022-12-18T06:31:28;100144.78;;;-8.36;100.00
53908;BME280;40469;47.998;7.794;2022-12-18T06:33:54;100152.53;;;-8.34;100.00
53908;BME280;40469;47.998;7.794;2022-12-18T06:36:19;100152.00;;;-8.30;100.00
53908;BME280;40469;47.998;7.794;2022-12-18T06:38:46;100153.91;;;-8.28;100.00
53908;BME280;40469;47.998;7.794;2022-12-18T06:41:16;100159.47;;;-8.32;100.00
53908;BME280;40469;47.998;7.794;2022-12-18T06:43:42;100157.06;;;-8.30;100.00
53908;BME280;40469;47.998;7.794;2022-12-18T06:46:08;100163.16;;;-8.28;100.00
53908;BME280;40469;47.998;7.794;2022-12-18T06:48:33;100166.56;;;-8.28;100.00
53908;BME280;40469;47.998;7.794;2022-12-18T06:50:59;100160.63;;;-8.28;100.00
53908;BME280;40469;47.998;7.794;2022-12-18T06:53:25;100163.69;;;-8.22;100.00
53908;BME280;40469;47.998;7.794;2022-12-18T06:55:50;100171.16;;;-8.24;100.00
53908;BME280;40469;47.998;7.794;2022-12-18T06:58:16;100173.16;;;-8.20;100.00
53908;BME280;40469;47.998;7.794;2022-12-18T07:00:41;100175.41;;;-8.33;100.00
53908;BME280;40469;47.998;7.794;2022-12-18T07:03:07;100180.53;;;-8.43;100.00
53908;BME280;40469;47.998;7.794;2022-12-18T07:05:32;100171.66;;;-8.48;100.00
53908;BME280;40469;47.998;7.794;2022-12-18T07:07:58;100171.13;;;-8.54;100.00
53908;BME280;40469;47.998;7.794;2022-12-18T07:10:24;100179.72;;;-8.52;100.00
53908;BME280;40469;47.998;7.794;2022-12-18T07:12:49;100174.91;;;-8.60;100.00
53908;BME280;40469;47.998;7.794;2022-12-18T07:15:15;100179.03;;;-8.70;100.00
53908;BME280;40469;47.998;7.794;2022-12-18T07:17:40;100174.75;;;-8.71;100.00
53908;BME280;40469;47.998;7.794;2022-12-18T07:20:06;100183.75;;;-8.75;100.00
53908;BME280;40469;47.998;7.794;2022-12-18T07:22:31;100188.66;;;-8.77;100.00
53908;BME280;40469;47.998;7.794;2022-12-18T07:24:57;100192.56;;;-8.80;100.00
53908;BME280;40469;47.998;7.794;2022-12-18T07:27:22;100190.66;;;-8.83;100.00
53908;BME280;40469;47.998;7.794;2022-12-18T07:29:47;100194.09;;;-8.82;100.00
53908;BME280;40469;47.998;7.794;2022-12-18T07:32:13;100202.41;;;-8.83;100.00
53908;BME280;40469;47.998;7.794;2022-12-18T07:34:38;100202.16;;;-8.86;100.00
53908;BME280;40469;47.998;7.794;2022-12-18T07:37:03;100216.31;;;-8.88;100.00
53908;BME280;40469;47.998;7.794;2022-12-18T07:39:29;100223.03;;;-8.89;100.00
53908;BME280;40469;47.998;7.794;2022-12-18T07:41:55;100228.69;;;-8.91;100.00
53908;BME280;40469;47.998;7.794;2022-12-18T07:44:40;100238.97;;;-8.90;100.00
53908;BME280;40469;47.998;7.794;2022-12-18T07:47:05;100230.50;;;-8.90;100.00
53908;BME280;40469;47.998;7.794;2022-12-18T07:49:30;100234.78;;;-8.89;100.00
53908;BME280;40469;47.998;7.794;2022-12-18T07:51:56;100238.97;;;-8.90;100.00
53908;BME280;40469;47.998;7.794;2022-12-18T07:54:23;100243.06;;;-8.82;100.00
53908;BME280;40469;47.998;7.794;2022-12-18T07:56:48;100242.03;;;-8.84;100.00
53908;BME280;40469;47.998;7.794;2022-12-18T07:59:13;100244.34;;;-8.77;100.00
53908;BME280;40469;47.998;7.794;2022-12-18T08:01:39;100246.94;;;-8.56;100.00
53908;BME280;40469;47.998;7.794;2022-12-18T08:04:04;100252.00;;;-8.56;100.00
53908;BME280;40469;47.998;7.794;2022-12-18T08:06:30;100245.78;;;-8.60;100.00
53908;BME280;40469;47.998;7.794;2022-12-18T08:08:56;100250.91;;;-8.49;100.00
53908;BME280;40469;47.998;7.794;2022-12-18T08:11:23;100234.19;;;-8.57;100.00
53908;BME280;40469;47.998;7.794;2022-12-18T08:13:49;100241.41;;;-8.52;100.00
53908;BME280;40469;47.998;7.794;2022-12-18T08:16:15;100246.84;;;-8.57;100.00
53908;BME280;40469;47.998;7.794;2022-12-18T08:18:40;100249.59;;;-8.54;100.00
53908;BME280;40469;47.998;7.794;2022-12-18T08:21:09;100250.38;;;-8.55;100.00
53908;BME280;40469;47.998;7.794;2022-12-18T08:23:35;100236.88;;;-8.75;100.00
53908;BME280;40469;47.998;7.794;2022-12-18T08:26:01;100238.97;;;-8.90;100.00
53908;BME280;40469;47.998;7.794;2022-12-18T08:28:26;100244.28;;;-8.87;100.00
53908;BME280;40469;47.998;7.794;2022-12-18T08:30:52;100227.06;;;-8.91;100.00
53908;BME280;40469;47.998;7.794;2022-12-18T08:33:17;100230.56;;;-8.99;100.00
53908;BME280;40469;47.998;7.794;2022-12-18T08:35:43;100224.00;;;-8.97;100.00
53908;BME280;40469;47.998;7.794;2022-12-18T08:38:08;100212.91;;;-8.89;100.00
53908;BME280;40469;47.998;7.794;2022-12-18T08:40:33;100217.19;;;-8.88;100.00
53908;BME280;40469;47.998;7.794;2022-12-18T08:42:58;100201.66;;;-9.11;100.00
53908;BME280;40469;47.998;7.794;2022-12-18T08:45:42;100196.97;;;-9.17;100.00
53908;BME280;40469;47.998;7.794;2022-12-18T08:48:07;100195.09;;;-9.09;100.00
53908;BME280;40469;47.998;7.794;2022-12-18T08:50:33;100202.75;;;-8.99;100.00
53908;BME280;40469;47.998;7.794;2022-12-18T08:52:58;100189.44;;;-9.07;100.00
53908;BME280;40469;47.998;7.794;2022-12-18T08:55:23;100188.47;;;-8.88;100.00
53908;BME280;40469;47.998;7.794;2022-12-18T08:57:50;100194.38;;;-8.69;100.00
53908;BME280;40469;47.998;7.794;2022-12-18T09:00:15;100186.81;;;-8.59;100.00
53908;BME280;40469;47.998;7.794;2022-12-18T09:02:41;100194.53;;;-8.57;100.00
53908;BME280;40469;47.998;7.794;2022-12-18T09:05:06;100192.34;;;-8.73;100.00
53908;BME280;40469;47.998;7.794;2022-12-18T09:07:31;100201.97;;;-8.69;100.00
53908;BME280;40469;47.998;7.794;2022-12-18T09:09:57;100193.63;;;-8.68;100.00
53908;BME280;40469;47.998;7.794;2022-12-18T09:12:22;100190.50;;;-8.55;100.00
53908;BME280;40469;47.998;7.794;2022-12-18T09:14:47;100179.72;;;-8.52;100.00
53908;BME280;40469;47.998;7.794;2022-12-18T09:17:13;100193.38;;;-8.40;100.00
53908;BME280;40469;47.998;7.794;2022-12-18T09:19:38;100182.78;;;-8.15;100.00
53908;BME280;40469;47.998;7.794;2022-12-18T09:22:03;100192.56;;;-8.20;100.00
53908;BME280;40469;47.998;7.794;2022-12-18T09:24:29;100187.25;;;-8.13;100.00
53908;BME280;40469;47.998;7.794;2022-12-18T09:26:54;100190.41;;;-7.95;100.00
53908;BME280;40469;47.998;7.794;2022-12-18T09:29:20;100200.81;;;-7.82;100.00
53908;BME280;40469;47.998;7.794;2022-12-18T09:31:46;100192.44;;;-7.70;100.00
53908;BME280;40469;47.998;7.794;2022-12-18T09:34:12;100193.91;;;-7.41;100.00
53908;BME280;40469;47.998;7.794;2022-12-18T09:36:37;100193.66;;;-7.34;100.00
53908;BME280;40469;47.998;7.794;2022-12-18T09:39:03;100192.63;;;-7.26;100.00
53908;BME280;40469;47.998;7.794;2022-12-18T09:41:50;100196.72;;;-6.96;100.00
53908;BME280;40469;47.998;7.794;2022-12-18T09:44:20;100208.22;;;-6.57;100.00
53908;BME280;40469;47.998;7.794;2022-12-18T09:47:33;100211.50;;;-6.03;100.00
53908;BME280;40469;47.998;7.794;2022-12-18T09:49:43;100217.06;;;-5.74;100.00
53908;BME280;40469;47.998;7.794;2022-12-18T09:52:41;100216.81;;;-5.31;100.00
53908;BME280;40469;47.998;7.794;2022-12-18T09:55:25;100209.31;;;-4.94;100.00
53908;BME280;40469;47.998;7.794;2022-12-18T09:58:00;100212.28;;;-4.76;100.00
53908;BME280;40469;47.998;7.794;2022-12-18T10:00:27;100213.91;;;-4.77;100.00
53908;BME280;40469;47.998;7.794;2022-12-18T10:02:59;100213.09;;;-4.52;100.00
53908;BME280;40469;47.998;7.794;2022-12-18T10:06:06;100205.28;;;-4.18;100.00
53908;BME280;40469;47.998;7.794;2022-12-18T10:13:58;100212.22;;;-4.41;100.00
53908;BME280;40469;47.998;7.794;2022-12-18T10:24:54;100165.00;;;-4.96;100.00
53908;BME280;40469;47.998;7.794;2022-12-18T10:27:25;100176.19;;;-5.06;100.00
53908;BME280;40469;47.998;7.794;2022-12-18T10:29:51;100162.72;;;-4.68;100.00
53908;BME280;40469;47.998;7.794;2022-12-18T10:32:23;100162.25;;;-4.50;100.00
53908;BME280;40469;47.998;7.794;2022-12-18T10:34:51;100152.78;;;-4.40;100.00
53908;BME280;40469;47.998;7.794;2022-12-18T10:37:19;100155.47;;;-4.13;100.00
53908;BME280;40469;47.998;7.794;2022-12-18T10:39:46;100156.53;;;-3.84;100.00
53908;BME280;40469;47.998;7.794;2022-12-18T10:42:20;100148.50;;;-3.64;100.00
53908;BME280;40469;47.998;7.794;2022-12-18T10:45:01;100148.81;;;-3.72;100.00
53908;BME280;40469;47.998;7.794;2022-12-18T10:47:27;100148.81;;;-3.97;100.00
53908;BME280;40469;47.998;7.794;2022-12-18T10:49:53;100154.50;;;-4.02;100.00
53908;BME280;40469;47.998;7.794;2022-12-18T10:52:25;100145.06;;;-3.77;100.00
53908;BME280;40469;47.998;7.794;2022-12-18T10:54:59;100138.81;;;-3.56;100.00
53908;BME280;40469;47.998;7.794;2022-12-18T10:57:37;100142.34;;;-3.27;100.00
53908;BME280;40469;47.998;7.794;2022-12-18T11:00:24;100132.94;;;-3.41;100.00
53908;BME280;40469;47.998;7.794;2022-12-18T11:02:50;100132.72;;;-3.58;100.00
53908;BME280;40469;47.998;7.794;2022-12-18T11:07:50;100126.19;;;-3.79;100.00
53908;BME280;40469;47.998;7.794;2022-12-18T11:10:25;100128.94;;;-3.76;100.00
53908;BME280;40469;47.998;7.794;2022-12-18T11:12:51;100129.53;;;-3.81;100.00
53908;BME280;40469;47.998;7.794;2022-12-18T11:15:35;100130.19;;;-3.58;100.00
53908;BME280;40469;47.998;7.794;2022-12-18T11:18:00;100123.00;;;-3.50;100.00
53908;BME280;40469;47.998;7.794;2022-12-18T11:20:34;100131.16;;;-3.56;100.00
53908;BME280;40469;47.998;7.794;2022-12-18T11:23:11;100129.78;;;-3.37;100.00
53908;BME280;40469;47.998;7.794;2022-12-18T11:25:38;100125.38;;;-3.40;100.00
53908;BME280;40469;47.998;7.794;2022-12-18T11:28:34;100134.88;;;-3.64;100.00
53908;BME280;40469;47.998;7.794;2022-12-18T11:31:28;100134.66;;;-3.67;100.00
53908;BME280;40469;47.998;7.794;2022-12-18T11:36:44;100142.56;;;-3.51;100.00
53908;BME280;40469;47.998;7.794;2022-12-18T11:39:18;100144.03;;;-3.54;100.00
53908;BME280;40469;47.998;7.794;2022-12-18T11:41:55;100149.22;;;-3.53;100.00
53908;BME280;40469;47.998;7.794;2022-12-18T11:49:51;100139.22;;;-3.10;100.00
53908;BME280;40469;47.998;7.794;2022-12-18T11:52:24;100127.19;;;-2.84;100.00
53908;BME280;40469;47.998;7.794;2022-12-18T11:54:52;100119.34;;;-2.87;100.00
53908;BME280;40469;47.998;7.794;2022-12-18T11:57:29;100108.84;;;-3.05;100.00
53908;BME280;40469;47.998;7.794;2022-12-18T12:00:21;100118.06;;;-3.07;100.00
53908;BME280;40469;47.998;7.794;2022-12-18T12:05:57;100107.69;;;-3.24;100.00
53908;BME280;40469;47.998;7.794;2022-12-18T12:16:35;100093.03;;;-3.66;100.00
53908;BME280;40469;47.998;7.794;2022-12-18T12:22:27;100091.28;;;-3.54;100.00
53908;BME280;40469;47.998;7.794;2022-12-18T12:33:43;100078.31;;;-3.30;100.00
53908;BME280;40469;47.998;7.794;2022-12-18T12:38:44;100087.06;;;-3.40;100.00
53908;BME280;40469;47.998;7.794;2022-12-18T12:41:14;100088.75;;;-3.40;100.00
53908;BME280;40469;47.998;7.794;2022-12-18T12:44:09;100093.56;;;-3.45;100.00
53908;BME280;40469;47.998;7.794;2022-12-18T12:46:40;100093.75;;;-3.42;100.00
53908;BME280;40469;47.998;7.794;2022-12-18T12:49:15;100099.44;;;-3.46;100.00
53908;BME280;40469;47.998;7.794;2022-12-18T12:51:43;100097.69;;;-3.47;100.00
53908;BME280;40469;47.998;7.794;2022-12-18T12:54:31;100094.53;;;-3.56;100.00
53908;BME280;40469;47.998;7.794;2022-12-18T12:56:59;100087.88;;;-3.54;100.00
53908;BME280;40469;47.998;7.794;2022-12-18T12:59:40;100083.41;;;-3.17;100.00
53908;BME280;40469;47.998;7.794;2022-12-18T13:02:21;100088.53;;;-3.30;100.00
53908;BME280;40469;47.998;7.794;2022-12-18T13:07:41;100074.81;;;-3.46;100.00
53908;BME280;40469;47.998;7.794;2022-12-18T13:10:22;100071.53;;;-3.43;100.00
53908;BME280;40469;47.998;7.794;2022-12-18T13:12:55;100072.41;;;-3.43;100.00
53908;BME280;40469;47.998;7.794;2022-12-18T13:18:38;100061.91;;;-3.20;100.00
53908;BME280;40469;47.998;7.794;2022-12-18T13:20:46;100071.16;;;-3.22;100.00
53908;BME280;40469;47.998;7.794;2022-12-18T13:23:38;100055.69;;;-3.11;100.00
53908;BME280;40469;47.998;7.794;2022-12-18T13:30:59;100062.31;;;-2.86;100.00
53908;BME280;40469;47.998;7.794;2022-12-18T13:40:58;100049.19;;;-3.06;100.00
53908;BME280;40469;47.998;7.794;2022-12-18T13:43:31;100055.31;;;-3.03;100.00
53908;BME280;40469;47.998;7.794;2022-12-18T13:46:06;100050.88;;;-3.06;100.00
53908;BME280;40469;47.998;7.794;2022-12-18T13:48:50;100053.09;;;-2.97;100.00
53908;BME280;40469;47.998;7.794;2022-12-18T13:51:17;100051.63;;;-2.94;100.00
53908;BME280;40469;47.998;7.794;2022-12-18T13:53:49;100035.44;;;-3.08;100.00
53908;BME280;40469;47.998;7.794;2022-12-18T13:56:16;100044.84;;;-2.93;100.00
53908;BME280;40469;47.998;7.794;2022-12-18T13:58:42;100058.00;;;-2.87;100.00
53908;BME280;40469;47.998;7.794;2022-12-18T14:01:23;100050.22;;;-2.75;100.00
53908;BME280;40469;47.998;7.794;2022-12-18T14:04:08;100052.56;;;-2.78;100.00
53908;BME280;40469;47.998;7.794;2022-12-18T14:06:34;100042.78;;;-2.99;100.00
53908;BME280;40469;47.998;7.794;2022-12-18T14:09:00;100038.41;;;-3.01;100.00
53908;BME280;40469;47.998;7.794;2022-12-18T14:11:27;100042.34;;;-3.07;100.00
53908;BME280;40469;47.998;7.794;2022-12-18T14:13:52;100041.72;;;-3.02;100.00
53908;BME280;40469;47.998;7.794;2022-12-18T14:16:18;100042.59;;;-3.02;100.00
53908;BME280;40469;47.998;7.794;2022-12-18T14:18:51;100041.31;;;-2.95;100.00
53908;BME280;40469;47.998;7.794;2022-12-18T14:21:26;100039.16;;;-3.02;100.00
53908;BME280;40469;47.998;7.794;2022-12-18T14:24:14;100033.75;;;-2.94;100.00